Latest Weather Observations for Scotts Peak

IDT60801

Issued at 1:35 pm EST Thursday 18 September 2014 (issued every 30 minutes, with the page automatically refreshed every 10 minutes)

About weather observations | Map of weather stations | Latest weather observations for TAS | Other Formats
Station Details ID: 097083 Name: SCOTTS PEAK DAM Lat: -43.04 Lon: 146.27 Height: 408.0 m
Data from the previous 72 hours. | See also: Recent months at Scotts Peak
Date/Time
EST
Temp
°C
App
Temp
°C
Dew
Point
Rel
Hum
%
Delta-T
°C
Wind Press
QNH
hPa
Press
MSL
hPa
Rain
since 9 am
mm
Dir
 
Spd
km/h
Gust
km/h
Spd
kts
Gust
kts
18/01:31pm 6.1 -3.3 4.6 90 0.7 W 43 61 23 33 - - 1.8
18/01:30pm 6.4 -2.8 5.4 93 0.5 W 43 59 23 32 - - 1.8
18/01:14pm 5.8 -4.2 4.4 91 0.6 WNW 46 65 25 35 - - 1.0
18/01:00pm 6.0 -4.2 3.2 82 1.2 WNW 46 63 25 34 - - 0.8
18/12:30pm 6.2 -3.5 3.9 85 1.0 WNW 44 63 24 34 - - 0.8
18/12:08pm 6.3 -2.8 4.1 86 1.0 WNW 41 61 22 33 - - 0.8
18/12:00pm 6.6 -1.7 4.1 84 1.1 WNW 37 54 20 29 - - 0.8
18/11:45am 7.0 -1.2 4.7 85 1.0 NW 37 44 20 24 - - 0.8
18/11:30am 5.5 -1.2 3.8 89 0.7 W 28 43 15 23 - - 0.8
18/11:00am 6.2 -0.5 3.9 85 1.0 WNW 28 41 15 22 - - 0.6
18/10:30am 6.5 -0.9 4.8 89 0.8 WNW 33 46 18 25 - - 0.6
18/10:00am 4.9 -2.7 2.9 87 0.8 W 32 54 17 29 - - 0.6
18/09:58am 5.3 -1.5 3.0 85 1.0 W 28 46 15 25 - - 0.6
18/09:30am 6.6 0.1 4.6 87 0.9 W 28 39 15 21 - - 0.0
18/09:08am 5.0 -2.1 3.3 89 0.7 WSW 30 44 16 24 - - 0.0
18/09:00am 5.6 0.5 4.2 91 0.6 W 20 26 11 14 - - 26.2
18/08:30am 4.7 -1.3 3.4 91 0.6 SW 24 39 13 21 - - 26.2
18/08:00am 3.9 -0.8 3.0 94 0.4 W 17 24 9 13 - - 26.2
18/07:30am 3.7 -1.6 3.0 95 0.3 WSW 20 33 11 18 - - 25.4
18/07:00am 3.9 -2.6 2.9 93 0.4 WSW 26 39 14 21 - - 24.2
18/06:30am 4.3 -1.7 3.3 93 0.4 WSW 24 46 13 25 - - 24.2
18/06:26am 4.4 -2.4 3.2 92 0.5 WSW 28 46 15 25 - - 24.2
18/06:00am 4.1 -2.7 2.9 92 0.5 W 28 43 15 23 - - 24.2
18/05:30am 4.1 -1.2 3.2 94 0.4 W 20 28 11 15 - - 24.0
18/05:00am 4.0 -2.0 3.1 94 0.4 WSW 24 39 13 21 - - 22.8
18/04:30am 4.0 -3.2 3.0 93 0.4 W 30 44 16 24 - - 22.2
18/04:00am 3.8 -2.3 2.5 91 0.5 WSW 24 37 13 20 - - 22.0
18/03:30am 4.0 -1.1 2.8 92 0.5 W 19 30 10 16 - - 21.8
18/03:00am 4.0 0.0 2.8 92 0.5 W 13 19 7 10 - - 21.4
18/02:30am 4.1 0.1 2.6 90 0.6 WSW 13 28 7 15 - - 21.0
18/02:00am 4.0 -0.8 2.7 91 0.5 WSW 17 30 9 16 - - 21.0
18/01:30am 4.4 -0.9 2.9 90 0.6 W 20 33 11 18 - - 20.6
18/01:00am 4.1 0.5 2.8 91 0.5 SW 11 19 6 10 - - 20.6
18/12:30am 4.2 -1.0 3.3 94 0.4 S 20 35 11 19 - - 20.2
18/12:09am 4.5 -2.3 3.2 91 0.5 SW 28 43 15 23 - - 19.6
18/12:00am 4.4 -0.2 3.5 94 0.4 W 17 24 9 13 - - 19.6
 
Date/Time
EST
Temp
°C
App
Temp
°C
Dew
Point
Rel
Hum
%
Delta-T
°C
Wind Press
QNH
hPa
Press
MSL
hPa
Rain
since 9 am
mm
Dir
 
Spd
km/h
Gust
km/h
Spd
kts
Gust
kts
17/11:30pm 4.2 -0.8 3.5 95 0.3 SW 19 28 10 15 - - 19.4
17/11:00pm 3.9 -2.6 2.9 93 0.4 SW 26 43 14 23 - - 19.0
17/10:40pm 3.9 -3.9 2.9 93 0.4 SW 33 52 18 28 - - 18.0
17/10:36pm 4.1 -4.4 3.1 93 0.4 SW 37 52 20 28 - - 17.8
17/10:30pm 3.8 -3.0 3.1 95 0.3 W 28 39 15 21 - - 17.6
17/10:00pm 3.9 0.0 3.5 97 0.2 SW 13 33 7 18 - - 15.4
17/09:30pm 2.7 -2.7 2.3 97 0.2 NW 20 24 11 13 - - 14.6
17/09:00pm 1.9 -4.8 1.3 96 0.2 WNW 26 44 14 24 - - 13.4
17/08:30pm 1.9 -4.1 1.0 94 0.3 WNW 22 35 12 19 - - 12.0
17/08:01pm 2.5 -5.6 1.0 90 0.6 W 33 57 18 31 - - 11.0
17/08:00pm 2.6 -5.3 1.0 89 0.6 W 32 48 17 26 - - 10.8
17/07:58pm 2.6 -5.0 0.8 88 0.7 W 30 48 16 26 - - 10.6
17/07:30pm 4.0 -1.5 0.5 78 1.4 W 19 32 10 17 - - 9.8
17/07:00pm 3.6 -2.0 1.3 85 0.9 WNW 20 30 11 16 - - 9.8
17/06:30pm 3.5 -1.7 0.2 79 1.3 SSW 17 20 9 11 - - 9.8
17/06:00pm 3.3 -4.6 0.9 84 0.9 WNW 32 39 17 21 - - 9.8
17/05:30pm 4.0 -3.5 0.9 80 1.2 W 30 52 16 28 - - 9.6
17/05:11pm 4.1 -3.8 0.8 79 1.3 W 32 59 17 32 - - 9.6
17/05:00pm 4.1 -3.8 0.8 79 1.3 WNW 32 43 17 23 - - 9.6
17/04:30pm 4.3 -3.6 0.8 78 1.4 W 32 52 17 28 - - 9.6
17/04:22pm 4.4 -3.8 0.6 76 1.5 W 33 52 18 28 - - 9.6
17/04:00pm 4.5 -1.1 1.5 81 1.2 W 20 32 11 17 - - 9.6
17/03:40pm 5.1 -2.0 1.4 77 1.5 W 28 56 15 30 - - 9.6
17/03:30pm 5.2 0.0 2.2 81 1.2 SSW 19 32 10 17 - - 9.6
17/03:00pm 4.6 -0.7 3.1 90 0.6 W 20 30 11 16 - - 9.6
17/02:32pm 3.8 -3.1 2.3 90 0.6 WSW 28 54 15 29 - - 9.2
17/02:30pm 4.2 -1.9 2.7 90 0.6 WSW 24 43 13 23 - - 9.0
17/02:00pm 5.2 0.5 3.2 87 0.8 SSW 17 24 9 13 - - 8.6
17/01:46pm 4.0 -4.6 2.4 89 0.7 SSW 37 56 20 30 - - 8.6
17/01:31pm 3.5 -3.5 1.7 88 0.7 WSW 28 54 15 29 - - 8.4
17/01:30pm 3.6 -3.0 1.8 88 0.7 WSW 26 54 14 29 - - 8.2
17/01:00pm 4.1 -0.2 3.2 94 0.4 W 15 22 8 12 - - 7.4
17/12:30pm 4.1 0.6 3.5 96 0.3 WNW 11 15 6 8 - - 6.8
17/12:00pm 3.3 -2.8 3.0 98 0.1 NW 24 30 13 16 - - 6.6
17/11:30am 3.0 -3.2 2.4 96 0.2 WNW 24 28 13 15 - - 5.8
17/11:00am 3.1 -1.8 2.2 94 0.4 WSW 17 24 9 13 - - 4.8
17/10:30am 3.0 -2.4 2.4 96 0.2 WNW 20 26 11 14 - - 4.2
17/10:00am 2.7 -4.7 1.8 94 0.4 W 30 41 16 22 - - 3.2
17/09:30am 4.5 -1.4 3.9 96 0.3 WNW 24 39 13 21 - - 0.6
17/09:00am 5.0 0.5 4.4 96 0.3 WNW 17 20 9 11 - - 8.0
17/08:30am 5.0 0.6 4.6 97 0.2 NW 17 20 9 11 - - 7.8
17/08:00am 4.9 -0.5 4.3 96 0.3 W 22 32 12 17 - - 7.6
17/07:30am 5.2 -1.6 4.9 98 0.1 NW 30 35 16 19 - - 7.0
17/07:00am 4.9 -1.2 4.6 98 0.1 NNW 26 35 14 19 - - 7.0
17/06:30am 5.0 2.5 4.7 98 0.1 W 7 9 4 5 - - 6.0
17/06:00am 5.1 2.3 5.0 99 0.0 NW 9 17 5 9 - - 5.2
17/05:30am 5.4 0.5 5.3 99 0.0 NNW 20 24 11 13 - - 4.0
17/05:00am 5.4 -0.2 5.3 99 0.0 NNW 24 32 13 17 - - 3.6
17/04:30am 5.3 -1.5 5.0 98 0.1 NNW 30 35 16 19 - - 3.6
17/04:00am 5.3 -1.9 5.0 98 0.1 NNW 32 35 17 19 - - 3.6
17/03:37am 5.8 -1.5 5.5 98 0.1 NNW 33 37 18 20 - - 3.6
17/03:30am 6.0 2.6 5.9 99 0.0 NNW 13 19 7 10 - - 3.4
17/03:00am 6.2 0.7 6.1 99 0.0 N 24 32 13 17 - - 2.8
17/02:30am 6.2 0.4 6.1 99 0.0 N 26 32 14 17 - - 2.6
17/02:00am 6.3 1.2 6.2 99 0.0 N 22 28 12 15 - - 2.6
17/01:30am 6.3 1.6 6.2 99 0.0 N 20 26 11 14 - - 2.6
17/01:00am 6.2 1.5 6.1 99 0.0 N 20 26 11 14 - - 2.6
17/12:30am 6.3 1.6 6.2 99 0.0 NNW 20 24 11 13 - - 2.6
17/12:00am 6.3 0.8 6.0 98 0.1 NNW 24 30 13 16 - - 2.6
 
Date/Time
EST
Temp
°C
App
Temp
°C
Dew
Point
Rel
Hum
%
Delta-T
°C
Wind Press
QNH
hPa
Press
MSL
hPa
Rain
since 9 am
mm
Dir
 
Spd
km/h
Gust
km/h
Spd
kts
Gust
kts
16/11:30pm 6.4 1.9 6.1 98 0.1 NNW 19 28 10 15 - - 2.6
16/11:00pm 6.2 1.7 5.9 98 0.1 NNW 19 24 10 13 - - 2.4
16/10:30pm 6.2 1.4 5.8 97 0.2 N 20 24 11 13 - - 2.4
16/10:00pm 6.7 3.0 6.3 97 0.2 NW 15 20 8 11 - - 2.4
16/09:30pm 6.8 3.5 6.4 97 0.2 NNW 13 20 7 11 - - 2.4
16/09:00pm 6.9 2.5 6.6 98 0.1 NNW 19 20 10 11 - - 2.4
16/08:30pm 6.2 2.4 5.6 96 0.3 N 15 17 8 9 - - 2.4
16/08:00pm 7.2 3.6 6.6 96 0.3 NW 15 20 8 11 - - 2.4
16/07:30pm 7.2 5.3 6.6 96 0.3 WNW 6 9 3 5 - - 2.4
16/07:00pm 6.8 4.5 5.9 94 0.4 NNW 7 11 4 6 - - 2.0
16/06:30pm 7.6 5.0 6.2 91 0.7 W 9 13 5 7 - - 2.0
16/06:00pm 7.8 3.5 7.1 95 0.3 NW 19 30 10 16 - - 1.0
16/05:30pm 7.8 1.7 6.4 91 0.7 NNW 28 32 15 17 - - 0.8
16/05:00pm 9.3 4.7 5.5 77 1.8 WSW 19 20 10 11 - - 0.0
16/04:30pm 10.8 7.2 5.1 68 2.7 W 13 19 7 10 - - 0.0
16/04:00pm 12.3 8.0 5.2 62 3.4 NNW 17 20 9 11 - - 0.0
16/03:30pm 12.8 9.6 5.0 59 3.7 NNW 11 15 6 8 - - 0.0
16/03:00pm 12.9 9.9 4.3 56 4.0 NNW 9 11 5 6 - - 0.0
16/02:30pm 13.7 10.0 4.3 53 4.4 NNW 13 20 7 11 - - 0.0
16/02:00pm 14.9 11.3 4.9 51 4.8 N 13 17 7 9 - - 0.0
16/01:30pm 15.3 11.0 5.2 51 4.9 NNW 17 22 9 12 - - 0.0
16/01:00pm 14.4 11.0 5.7 56 4.2 NNW 13 20 7 11 - - 0.0
16/12:30pm 13.8 10.4 5.7 58 3.9 NW 13 17 7 9 - - 0.0
16/12:00pm 12.7 8.7 4.7 58 3.8 NNW 15 19 8 10 - - 0.0
16/11:30am 13.1 10.0 7.1 67 3.0 NNW 13 17 7 9 - - 0.0
16/11:00am 9.6 6.5 3.6 66 2.7 NW 9 13 5 7 - - 0.0
16/10:30am 10.4 6.8 5.0 69 2.5 NNW 13 17 7 9 - - 0.0
16/10:00am 9.5 6.3 5.1 74 2.0 NNW 11 15 6 8 - - 0.0
16/09:30am 7.9 5.7 6.2 89 0.8 NNW 7 11 4 6 - - 0.0
16/09:00am 5.4 3.4 4.2 92 0.5 WNW 4 7 2 4 - - 0.2
16/08:30am 4.8 3.1 4.2 96 0.3 NW 2 6 1 3 - - 0.2
16/08:00am 4.6 3.0 4.5 99 0.0 NNW 2 7 1 4 - - 0.2
16/07:30am 4.0 1.3 3.9 99 0.0 NW 7 7 4 4 - - 0.2
16/07:00am 3.1 -0.1 2.8 98 0.1 NW 9 9 5 5 - - 0.2
16/06:30am 2.5 -0.5 2.1 97 0.2 NNW 7 9 4 5 - - 0.2
16/06:00am 2.5 0.1 2.1 97 0.2 N 4 9 2 5 - - 0.2
16/05:30am 2.3 0.6 1.9 97 0.2 CALM 0 0 0 0 - - 0.2
16/05:00am 2.4 0.7 1.8 96 0.2 CALM 0 0 0 0 - - 0.2
16/04:30am 2.6 0.2 1.9 95 0.3 E 4 7 2 4 - - 0.2
16/04:00am 2.5 -0.4 1.5 93 0.4 NNW 6 9 3 5 - - 0.2
16/03:30am 3.3 1.6 2.1 92 0.5 CALM 0 0 0 0 - - 0.2
16/03:00am 3.0 0.0 2.0 93 0.4 SE 7 9 4 5 - - 0.2
16/02:30am 3.2 0.2 2.2 93 0.4 SE 7 7 4 4 - - 0.2
16/02:00am 3.3 0.0 2.3 93 0.4 SSE 9 11 5 6 - - 0.2
16/01:30am 3.4 0.1 2.4 93 0.4 SSE 9 13 5 7 - - 0.2
16/01:00am 3.3 -0.4 2.1 92 0.5 SSE 11 15 6 8 - - 0.2
16/12:30am 3.4 -0.3 2.2 92 0.5 SSE 11 13 6 7 - - 0.2
16/12:00am 3.6 -0.1 2.4 92 0.5 SSE 11 15 6 8 - - 0.2
 
Date/Time
EST
Temp
°C
App
Temp
°C
Dew
Point
Rel
Hum
%
Delta-T
°C
Wind Press
QNH
hPa
Press
MSL
hPa
Rain
since 9 am
mm
Dir
 
Spd
km/h
Gust
km/h
Spd
kts
Gust
kts
15/11:30pm 3.7 -0.4 2.2 90 0.6 SSE 13 17 7 9 - - 0.2
15/11:00pm 4.0 -0.1 2.4 89 0.7 SSE 13 19 7 10 - - 0.2
15/10:30pm 4.1 0.0 2.3 88 0.7 SSE 13 19 7 10 - - 0.2
15/10:00pm 4.4 -0.1 2.4 87 0.8 SSE 15 19 8 10 - - 0.2
15/09:30pm 4.5 0.0 2.4 86 0.9 SSE 15 20 8 11 - - 0.2
15/09:00pm 4.8 0.0 2.5 85 1.0 SSE 17 20 9 11 - - 0.2
15/08:30pm 5.2 0.4 2.6 83 1.1 SSE 17 20 9 11 - - 0.2
15/08:00pm 5.6 0.8 2.8 82 1.2 SSE 17 20 9 11 - - 0.2
15/07:30pm 6.1 1.4 2.9 80 1.4 SSE 17 22 9 12 - - 0.2
15/07:00pm 6.8 2.5 3.1 77 1.6 SSE 15 19 8 10 - - 0.2
15/06:30pm 7.4 3.4 2.9 73 1.9 S 13 19 7 10 - - 0.2
15/06:00pm 8.5 4.5 2.9 68 2.4 S 13 17 7 9 - - 0.2
15/05:30pm 9.7 6.4 2.3 60 3.2 S 9 13 5 7 - - 0.2
15/05:00pm 10.9 9.2 1.7 53 4.0 CALM 0 0 0 0 - - 0.2
15/04:30pm 11.6 8.7 -0.9 42 5.1 NNW 4 7 2 4 - - 0.2
15/04:00pm 13.0 9.4 0.4 42 5.4 E 9 15 5 8 - - 0.2
15/03:30pm 12.6 9.2 -2.4 35 6.0 WNW 6 11 3 6 - - 0.2
15/03:00pm 14.1 9.8 -1.5 34 6.5 NW 11 13 6 7 - - 0.2
15/02:30pm 15.4 11.8 5.0 50 5.0 NNW 13 17 7 9 - - 0.2
15/02:00pm 14.4 10.5 3.5 48 5.1 NW 13 17 7 9 - - 0.2

Other Formats:

Comma delimited format used in spreadsheet applications
http://www.bom.gov.au/fwo/IDT60801/IDT60801.95958.axf

JavaScript Object Notation format (JSON) in row-major order
http://www.bom.gov.au/fwo/IDT60801/IDT60801.95958.json